sensor_id;sensor_type;location;lat;lon;timestamp;temperature;humidity
20672;DHT22;10495;50.922;4.760;2022-10-16T00:02:20;15.20;87.00
20672;DHT22;10495;50.922;4.760;2022-10-16T00:04:46;15.20;86.90
20672;DHT22;10495;50.922;4.760;2022-10-16T00:07:11;15.20;86.80
20672;DHT22;10495;50.922;4.760;2022-10-16T00:09:37;15.20;87.00
20672;DHT22;10495;50.922;4.760;2022-10-16T00:12:02;15.20;86.90
20672;DHT22;10495;50.922;4.760;2022-10-16T00:14:30;15.10;87.20
20672;DHT22;10495;50.922;4.760;2022-10-16T00:16:55;15.00;87.40
20672;DHT22;10495;50.922;4.760;2022-10-16T00:19:21;15.00;87.50
20672;DHT22;10495;50.922;4.760;2022-10-16T00:21:46;15.20;86.60
20672;DHT22;10495;50.922;4.760;2022-10-16T00:24:12;15.10;87.20
20672;DHT22;10495;50.922;4.760;2022-10-16T00:26:38;15.00;87.50
20672;DHT22;10495;50.922;4.760;2022-10-16T00:29:04;15.10;87.40
20672;DHT22;10495;50.922;4.760;2022-10-16T00:31:30;15.00;87.60
20672;DHT22;10495;50.922;4.760;2022-10-16T00:33:56;14.80;88.10
20672;DHT22;10495;50.922;4.760;2022-10-16T00:36:24;14.90;87.70
20672;DHT22;10495;50.922;4.760;2022-10-16T00:38:53;14.90;88.20
20672;DHT22;10495;50.922;4.760;2022-10-16T00:41:21;14.80;88.50
20672;DHT22;10495;50.922;4.760;2022-10-16T00:46:37;14.80;88.40
20672;DHT22;10495;50.922;4.760;2022-10-16T00:49:06;14.90;88.20
20672;DHT22;10495;50.922;4.760;2022-10-16T00:51:38;14.70;89.00
20672;DHT22;10495;50.922;4.760;2022-10-16T00:54:16;14.60;89.20
20672;DHT22;10495;50.922;4.760;2022-10-16T00:56:43;14.70;89.20
20672;DHT22;10495;50.922;4.760;2022-10-16T00:59:25;14.60;89.70
20672;DHT22;10495;50.922;4.760;2022-10-16T01:01:52;14.70;89.60
20672;DHT22;10495;50.922;4.760;2022-10-16T01:04:18;14.70;89.30
20672;DHT22;10495;50.922;4.760;2022-10-16T01:09:26;14.70;89.20
20672;DHT22;10495;50.922;4.760;2022-10-16T01:12:09;14.60;89.80
20672;DHT22;10495;50.922;4.760;2022-10-16T01:14:46;14.50;90.00
20672;DHT22;10495;50.922;4.760;2022-10-16T01:17:22;14.60;90.00
20672;DHT22;10495;50.922;4.760;2022-10-16T01:20:02;14.50;89.90
20672;DHT22;10495;50.922;4.760;2022-10-16T01:25:11;14.50;90.10
20672;DHT22;10495;50.922;4.760;2022-10-16T01:27:39;14.60;89.90
20672;DHT22;10495;50.922;4.760;2022-10-16T01:30:23;14.50;89.90
20672;DHT22;10495;50.922;4.760;2022-10-16T01:33:14;14.70;89.50
20672;DHT22;10495;50.922;4.760;2022-10-16T01:35:46;14.70;89.70
20672;DHT22;10495;50.922;4.760;2022-10-16T01:38:19;14.70;89.50
20672;DHT22;10495;50.922;4.760;2022-10-16T01:40:50;14.70;89.60
20672;DHT22;10495;50.922;4.760;2022-10-16T01:43:25;14.70;89.60
20672;DHT22;10495;50.922;4.760;2022-10-16T01:45:52;14.60;90.00
20672;DHT22;10495;50.922;4.760;2022-10-16T01:48:19;14.50;90.00
20672;DHT22;10495;50.922;4.760;2022-10-16T01:50:54;14.50;90.20
20672;DHT22;10495;50.922;4.760;2022-10-16T01:53:22;14.60;90.10
20672;DHT22;10495;50.922;4.760;2022-10-16T01:55:49;14.50;90.20
20672;DHT22;10495;50.922;4.760;2022-10-16T01:58:15;14.40;90.30
20672;DHT22;10495;50.922;4.760;2022-10-16T02:00:44;14.50;90.40
20672;DHT22;10495;50.922;4.760;2022-10-16T02:03:12;14.60;90.10
20672;DHT22;10495;50.922;4.760;2022-10-16T02:05:47;14.50;90.30
20672;DHT22;10495;50.922;4.760;2022-10-16T02:08:14;14.60;90.10
20672;DHT22;10495;50.922;4.760;2022-10-16T02:10:40;14.50;90.30
20672;DHT22;10495;50.922;4.760;2022-10-16T02:13:10;14.50;90.20
20672;DHT22;10495;50.922;4.760;2022-10-16T02:15:37;14.40;90.40
20672;DHT22;10495;50.922;4.760;2022-10-16T02:18:04;14.50;90.30
20672;DHT22;10495;50.922;4.760;2022-10-16T02:20:38;14.50;90.50
20672;DHT22;10495;50.922;4.760;2022-10-16T02:23:07;14.40;90.60
20672;DHT22;10495;50.922;4.760;2022-10-16T02:25:40;14.50;90.40
20672;DHT22;10495;50.922;4.760;2022-10-16T02:28:25;14.50;90.40
20672;DHT22;10495;50.922;4.760;2022-10-16T02:30:59;14.50;90.50
20672;DHT22;10495;50.922;4.760;2022-10-16T02:33:28;14.60;90.50
20672;DHT22;10495;50.922;4.760;2022-10-16T02:35:55;14.70;90.10
20672;DHT22;10495;50.922;4.760;2022-10-16T02:38:23;14.70;90.20
20672;DHT22;10495;50.922;4.760;2022-10-16T02:40:50;14.90;90.30
20672;DHT22;10495;50.922;4.760;2022-10-16T02:43:16;14.70;90.10
20672;DHT22;10495;50.922;4.760;2022-10-16T02:45:41;14.80;90.20
20672;DHT22;10495;50.922;4.760;2022-10-16T02:48:07;14.70;90.40
20672;DHT22;10495;50.922;4.760;2022-10-16T02:50:33;14.60;90.30
20672;DHT22;10495;50.922;4.760;2022-10-16T02:52:59;14.50;90.50
20672;DHT22;10495;50.922;4.760;2022-10-16T02:55:24;14.50;90.50
20672;DHT22;10495;50.922;4.760;2022-10-16T02:57:50;14.50;90.50
20672;DHT22;10495;50.922;4.760;2022-10-16T03:00:17;14.50;90.50
20672;DHT22;10495;50.922;4.760;2022-10-16T03:02:43;14.40;90.70
20672;DHT22;10495;50.922;4.760;2022-10-16T03:05:10;14.60;90.70
20672;DHT22;10495;50.922;4.760;2022-10-16T03:07:35;14.50;90.70
20672;DHT22;10495;50.922;4.760;2022-10-16T03:10:01;14.40;90.90
20672;DHT22;10495;50.922;4.760;2022-10-16T03:12:27;14.40;90.90
20672;DHT22;10495;50.922;4.760;2022-10-16T03:14:53;14.40;91.00
20672;DHT22;10495;50.922;4.760;2022-10-16T03:17:19;14.40;91.10
20672;DHT22;10495;50.922;4.760;2022-10-16T03:19:44;14.40;91.00
20672;DHT22;10495;50.922;4.760;2022-10-16T03:22:10;14.50;90.80
20672;DHT22;10495;50.922;4.760;2022-10-16T03:24:36;14.50;90.80
20672;DHT22;10495;50.922;4.760;2022-10-16T03:27:01;14.50;91.00
20672;DHT22;10495;50.922;4.760;2022-10-16T03:29:27;14.50;91.00
20672;DHT22;10495;50.922;4.760;2022-10-16T03:31:55;14.50;90.90
20672;DHT22;10495;50.922;4.760;2022-10-16T03:34:20;14.40;91.00
20672;DHT22;10495;50.922;4.760;2022-10-16T03:36:46;14.50;91.00
20672;DHT22;10495;50.922;4.760;2022-10-16T03:39:11;14.50;91.00
20672;DHT22;10495;50.922;4.760;2022-10-16T03:41:37;14.60;90.80
20672;DHT22;10495;50.922;4.760;2022-10-16T03:44:03;14.60;90.70
20672;DHT22;10495;50.922;4.760;2022-10-16T03:46:28;14.70;90.70
20672;DHT22;10495;50.922;4.760;2022-10-16T03:48:55;14.60;90.80
20672;DHT22;10495;50.922;4.760;2022-10-16T03:51:20;14.60;90.80
20672;DHT22;10495;50.922;4.760;2022-10-16T03:53:46;14.60;90.80
20672;DHT22;10495;50.922;4.760;2022-10-16T03:56:12;14.60;90.70
20672;DHT22;10495;50.922;4.760;2022-10-16T03:58:37;14.60;90.80
20672;DHT22;10495;50.922;4.760;2022-10-16T04:01:03;14.50;90.80
20672;DHT22;10495;50.922;4.760;2022-10-16T04:03:28;14.50;90.80
20672;DHT22;10495;50.922;4.760;2022-10-16T04:05:54;14.50;91.00
20672;DHT22;10495;50.922;4.760;2022-10-16T04:08:19;14.60;90.90
20672;DHT22;10495;50.922;4.760;2022-10-16T04:10:45;14.60;90.80
20672;DHT22;10495;50.922;4.760;2022-10-16T04:13:11;14.80;90.60
20672;DHT22;10495;50.922;4.760;2022-10-16T04:15:37;14.80;90.50
20672;DHT22;10495;50.922;4.760;2022-10-16T04:18:04;14.70;90.60
20672;DHT22;10495;50.922;4.760;2022-10-16T04:20:30;14.60;90.70
20672;DHT22;10495;50.922;4.760;2022-10-16T04:22:56;14.70;90.80
20672;DHT22;10495;50.922;4.760;2022-10-16T04:25:22;14.50;91.10
20672;DHT22;10495;50.922;4.760;2022-10-16T04:27:47;14.50;91.30
20672;DHT22;10495;50.922;4.760;2022-10-16T04:30:13;14.50;91.30
20672;DHT22;10495;50.922;4.760;2022-10-16T04:32:39;14.40;91.40
20672;DHT22;10495;50.922;4.760;2022-10-16T04:35:05;14.40;91.40
20672;DHT22;10495;50.922;4.760;2022-10-16T04:37:31;14.40;91.40
20672;DHT22;10495;50.922;4.760;2022-10-16T04:39:56;14.40;91.50
20672;DHT22;10495;50.922;4.760;2022-10-16T04:42:22;14.30;91.60
20672;DHT22;10495;50.922;4.760;2022-10-16T04:44:48;14.40;91.50
20672;DHT22;10495;50.922;4.760;2022-10-16T04:47:13;14.50;91.30
20672;DHT22;10495;50.922;4.760;2022-10-16T04:49:39;14.50;91.20
20672;DHT22;10495;50.922;4.760;2022-10-16T04:52:05;14.30;91.60
20672;DHT22;10495;50.922;4.760;2022-10-16T04:54:30;14.20;91.80
20672;DHT22;10495;50.922;4.760;2022-10-16T04:56:56;14.30;91.70
20672;DHT22;10495;50.922;4.760;2022-10-16T04:59:22;14.30;91.80
20672;DHT22;10495;50.922;4.760;2022-10-16T05:01:47;14.30;91.60
20672;DHT22;10495;50.922;4.760;2022-10-16T05:04:14;14.20;91.70
20672;DHT22;10495;50.922;4.760;2022-10-16T05:06:41;14.50;91.60
20672;DHT22;10495;50.922;4.760;2022-10-16T05:09:07;14.40;91.80
20672;DHT22;10495;50.922;4.760;2022-10-16T05:11:33;14.40;91.40
20672;DHT22;10495;50.922;4.760;2022-10-16T05:13:59;14.40;91.30
20672;DHT22;10495;50.922;4.760;2022-10-16T05:16:24;14.40;91.40
20672;DHT22;10495;50.922;4.760;2022-10-16T05:18:51;14.30;91.50
20672;DHT22;10495;50.922;4.760;2022-10-16T05:21:17;14.40;91.40
20672;DHT22;10495;50.922;4.760;2022-10-16T05:23:45;14.50;91.20
20672;DHT22;10495;50.922;4.760;2022-10-16T05:26:11;14.50;91.10
20672;DHT22;10495;50.922;4.760;2022-10-16T05:28:36;14.30;91.30
20672;DHT22;10495;50.922;4.760;2022-10-16T05:31:06;14.30;91.40
20672;DHT22;10495;50.922;4.760;2022-10-16T05:33:32;14.30;91.30
20672;DHT22;10495;50.922;4.760;2022-10-16T05:36:04;14.30;91.50
20672;DHT22;10495;50.922;4.760;2022-10-16T05:38:29;14.20;91.50
20672;DHT22;10495;50.922;4.760;2022-10-16T05:40:55;14.10;91.90
20672;DHT22;10495;50.922;4.760;2022-10-16T05:43:21;14.20;91.90
20672;DHT22;10495;50.922;4.760;2022-10-16T05:45:58;14.20;91.70
20672;DHT22;10495;50.922;4.760;2022-10-16T05:48:24;14.30;91.60
20672;DHT22;10495;50.922;4.760;2022-10-16T05:51:11;14.30;91.60
20672;DHT22;10495;50.922;4.760;2022-10-16T05:53:38;14.10;91.80
20672;DHT22;10495;50.922;4.760;2022-10-16T05:56:05;14.20;92.00
20672;DHT22;10495;50.922;4.760;2022-10-16T05:58:33;14.20;91.90
20672;DHT22;10495;50.922;4.760;2022-10-16T06:01:14;14.10;92.00
20672;DHT22;10495;50.922;4.760;2022-10-16T06:03:40;14.10;92.00
20672;DHT22;10495;50.922;4.760;2022-10-16T06:06:16;14.00;92.30
20672;DHT22;10495;50.922;4.760;2022-10-16T06:11:28;14.00;92.40
20672;DHT22;10495;50.922;4.760;2022-10-16T06:13:56;14.00;92.20
20672;DHT22;10495;50.922;4.760;2022-10-16T06:16:25;14.00;92.30
20672;DHT22;10495;50.922;4.760;2022-10-16T06:18:52;14.00;92.40
20672;DHT22;10495;50.922;4.760;2022-10-16T06:21:20;14.00;92.20
20672;DHT22;10495;50.922;4.760;2022-10-16T06:23:46;14.00;92.30
20672;DHT22;10495;50.922;4.760;2022-10-16T06:26:14;14.10;92.10
20672;DHT22;10495;50.922;4.760;2022-10-16T06:28:40;14.10;92.00
20672;DHT22;10495;50.922;4.760;2022-10-16T06:31:07;14.10;91.90
20672;DHT22;10495;50.922;4.760;2022-10-16T06:33:33;14.00;92.10
20672;DHT22;10495;50.922;4.760;2022-10-16T06:36:03;14.10;92.10
20672;DHT22;10495;50.922;4.760;2022-10-16T06:38:29;14.10;91.90
20672;DHT22;10495;50.922;4.760;2022-10-16T06:40:55;14.20;92.00
20672;DHT22;10495;50.922;4.760;2022-10-16T06:43:20;14.10;92.20
20672;DHT22;10495;50.922;4.760;2022-10-16T06:45:56;14.30;92.10
20672;DHT22;10495;50.922;4.760;2022-10-16T06:48:22;14.30;92.00
20672;DHT22;10495;50.922;4.760;2022-10-16T06:50:59;14.30;92.00
20672;DHT22;10495;50.922;4.760;2022-10-16T06:53:26;14.20;92.10
20672;DHT22;10495;50.922;4.760;2022-10-16T06:55:52;14.20;92.30
20672;DHT22;10495;50.922;4.760;2022-10-16T06:58:17;14.30;92.20
20672;DHT22;10495;50.922;4.760;2022-10-16T07:00:43;14.30;92.20
20672;DHT22;10495;50.922;4.760;2022-10-16T07:03:09;14.30;92.40
20672;DHT22;10495;50.922;4.760;2022-10-16T07:05:41;14.30;92.70
20672;DHT22;10495;50.922;4.760;2022-10-16T07:08:07;14.30;92.60
20672;DHT22;10495;50.922;4.760;2022-10-16T07:10:33;14.30;92.70
20672;DHT22;10495;50.922;4.760;2022-10-16T07:12:59;14.40;92.70
20672;DHT22;10495;50.922;4.760;2022-10-16T07:15:26;14.50;92.70
20672;DHT22;10495;50.922;4.760;2022-10-16T07:17:52;14.80;92.90
20672;DHT22;10495;50.922;4.760;2022-10-16T07:20:18;15.40;92.20
20672;DHT22;10495;50.922;4.760;2022-10-16T07:22:43;16.00;91.80
20672;DHT22;10495;50.922;4.760;2022-10-16T07:25:09;16.50;91.50
20672;DHT22;10495;50.922;4.760;2022-10-16T07:27:34;17.10;90.00
20672;DHT22;10495;50.922;4.760;2022-10-16T07:30:00;17.30;90.10
20672;DHT22;10495;50.922;4.760;2022-10-16T07:32:26;17.40;87.20
20672;DHT22;10495;50.922;4.760;2022-10-16T07:34:52;17.30;87.10
20672;DHT22;10495;50.922;4.760;2022-10-16T07:37:18;17.20;87.30
20672;DHT22;10495;50.922;4.760;2022-10-16T07:39:43;17.30;87.10
20672;DHT22;10495;50.922;4.760;2022-10-16T07:42:09;17.40;87.70
20672;DHT22;10495;50.922;4.760;2022-10-16T07:44:34;17.50;86.40
20672;DHT22;10495;50.922;4.760;2022-10-16T07:47:00;17.60;86.30
20672;DHT22;10495;50.922;4.760;2022-10-16T07:49:25;17.80;85.70
20672;DHT22;10495;50.922;4.760;2022-10-16T07:51:51;18.10;85.80
20672;DHT22;10495;50.922;4.760;2022-10-16T07:54:17;18.50;84.20
20672;DHT22;10495;50.922;4.760;2022-10-16T07:56:42;18.90;83.30
20672;DHT22;10495;50.922;4.760;2022-10-16T07:59:08;19.20;81.10
20672;DHT22;10495;50.922;4.760;2022-10-16T08:01:33;19.20;81.90
20672;DHT22;10495;50.922;4.760;2022-10-16T08:03:59;19.50;81.10
20672;DHT22;10495;50.922;4.760;2022-10-16T08:06:25;19.70;80.60
20672;DHT22;10495;50.922;4.760;2022-10-16T08:08:51;19.90;79.60
20672;DHT22;10495;50.922;4.760;2022-10-16T08:11:17;20.20;78.60
20672;DHT22;10495;50.922;4.760;2022-10-16T08:13:43;20.00;77.50
20672;DHT22;10495;50.922;4.760;2022-10-16T08:16:08;20.30;78.30
20672;DHT22;10495;50.922;4.760;2022-10-16T08:18:36;20.60;77.90
20672;DHT22;10495;50.922;4.760;2022-10-16T08:21:03;21.00;77.40
20672;DHT22;10495;50.922;4.760;2022-10-16T08:23:29;21.20;75.90
20672;DHT22;10495;50.922;4.760;2022-10-16T08:25:56;21.50;75.50
20672;DHT22;10495;50.922;4.760;2022-10-16T08:28:23;21.70;74.00
20672;DHT22;10495;50.922;4.760;2022-10-16T08:30:48;21.80;73.60
20672;DHT22;10495;50.922;4.760;2022-10-16T08:33:14;22.10;73.00
20672;DHT22;10495;50.922;4.760;2022-10-16T08:35:40;22.20;72.10
20672;DHT22;10495;50.922;4.760;2022-10-16T08:38:06;22.30;71.80
20672;DHT22;10495;50.922;4.760;2022-10-16T08:40:34;22.40;71.10
20672;DHT22;10495;50.922;4.760;2022-10-16T08:48:50;22.80;69.10
20672;DHT22;10495;50.922;4.760;2022-10-16T08:51:26;22.90;68.90
20672;DHT22;10495;50.922;4.760;2022-10-16T08:53:56;22.70;69.50
20672;DHT22;10495;50.922;4.760;2022-10-16T08:56:22;22.90;70.50
20672;DHT22;10495;50.922;4.760;2022-10-16T08:58:49;23.10;68.90
20672;DHT22;10495;50.922;4.760;2022-10-16T09:01:17;23.10;68.80
20672;DHT22;10495;50.922;4.760;2022-10-16T09:06:50;23.80;67.60
20672;DHT22;10495;50.922;4.760;2022-10-16T09:18:12;24.50;64.00
20672;DHT22;10495;50.922;4.760;2022-10-16T09:21:38;24.00;63.50
20672;DHT22;10495;50.922;4.760;2022-10-16T09:23:44;24.40;63.90
20672;DHT22;10495;50.922;4.760;2022-10-16T09:26:13;24.20;64.40
20672;DHT22;10495;50.922;4.760;2022-10-16T09:28:40;24.30;65.20
20672;DHT22;10495;50.922;4.760;2022-10-16T09:31:15;24.30;64.70
20672;DHT22;10495;50.922;4.760;2022-10-16T09:33:48;24.40;63.70
20672;DHT22;10495;50.922;4.760;2022-10-16T09:36:16;24.80;62.30
20672;DHT22;10495;50.922;4.760;2022-10-16T09:38:42;24.40;61.10
20672;DHT22;10495;50.922;4.760;2022-10-16T09:43:41;23.10;65.20
20672;DHT22;10495;50.922;4.760;2022-10-16T09:46:30;22.90;66.00
20672;DHT22;10495;50.922;4.760;2022-10-16T09:49:00;22.60;65.90
20672;DHT22;10495;50.922;4.760;2022-10-16T09:51:32;22.10;67.50
20672;DHT22;10495;50.922;4.760;2022-10-16T09:56:36;21.40;69.00
20672;DHT22;10495;50.922;4.760;2022-10-16T09:59:13;21.20;70.70
20672;DHT22;10495;50.922;4.760;2022-10-16T10:01:41;21.10;71.80
20672;DHT22;10495;50.922;4.760;2022-10-16T10:04:08;21.30;70.90
20672;DHT22;10495;50.922;4.760;2022-10-16T10:06:37;21.10;70.90
20672;DHT22;10495;50.922;4.760;2022-10-16T10:09:58;21.00;71.80
20672;DHT22;10495;50.922;4.760;2022-10-16T10:12:05;21.00;70.40
20672;DHT22;10495;50.922;4.760;2022-10-16T10:14:40;21.00;70.90
20672;DHT22;10495;50.922;4.760;2022-10-16T10:17:10;21.00;72.00
20672;DHT22;10495;50.922;4.760;2022-10-16T10:19:47;20.90;71.10
20672;DHT22;10495;50.922;4.760;2022-10-16T10:27:45;20.70;72.40
20672;DHT22;10495;50.922;4.760;2022-10-16T10:36:05;20.70;72.30
20672;DHT22;10495;50.922;4.760;2022-10-16T10:44:19;20.90;71.10
20672;DHT22;10495;50.922;4.760;2022-10-16T10:47:27;20.90;71.00
20672;DHT22;10495;50.922;4.760;2022-10-16T10:50:13;20.80;71.20
20672;DHT22;10495;50.922;4.760;2022-10-16T10:55:43;20.70;71.80
20672;DHT22;10495;50.922;4.760;2022-10-16T11:01:13;20.70;70.70
20672;DHT22;10495;50.922;4.760;2022-10-16T11:04:34;20.70;69.90
20672;DHT22;10495;50.922;4.760;2022-10-16T11:09:28;20.90;71.20
20672;DHT22;10495;50.922;4.760;2022-10-16T11:17:39;20.30;69.80
20672;DHT22;10495;50.922;4.760;2022-10-16T11:20:25;20.30;70.70
20672;DHT22;10495;50.922;4.760;2022-10-16T11:23:06;20.60;70.70
20672;DHT22;10495;50.922;4.760;2022-10-16T11:25:34;20.50;70.00
20672;DHT22;10495;50.922;4.760;2022-10-16T11:28:11;20.40;69.30
20672;DHT22;10495;50.922;4.760;2022-10-16T11:30:47;20.50;69.00
20672;DHT22;10495;50.922;4.760;2022-10-16T11:36:06;20.50;69.70
20672;DHT22;10495;50.922;4.760;2022-10-16T11:49:32;20.50;68.70
20672;DHT22;10495;50.922;4.760;2022-10-16T11:57:29;20.20;68.70
20672;DHT22;10495;50.922;4.760;2022-10-16T12:08:13;20.20;70.40
20672;DHT22;10495;50.922;4.760;2022-10-16T12:10:42;20.30;69.80
20672;DHT22;10495;50.922;4.760;2022-10-16T12:13:34;20.30;69.60
20672;DHT22;10495;50.922;4.760;2022-10-16T12:16:07;20.40;70.20
20672;DHT22;10495;50.922;4.760;2022-10-16T12:18:33;20.40;70.40
20672;DHT22;10495;50.922;4.760;2022-10-16T12:20:59;20.40;70.90
20672;DHT22;10495;50.922;4.760;2022-10-16T12:23:31;20.40;71.10
20672;DHT22;10495;50.922;4.760;2022-10-16T12:25:58;20.60;69.30
20672;DHT22;10495;50.922;4.760;2022-10-16T12:28:34;20.60;70.00
20672;DHT22;10495;50.922;4.760;2022-10-16T12:31:04;20.70;70.60
20672;DHT22;10495;50.922;4.760;2022-10-16T12:33:35;20.90;70.00
20672;DHT22;10495;50.922;4.760;2022-10-16T12:36:13;20.90;69.80
20672;DHT22;10495;50.922;4.760;2022-10-16T12:38:48;20.90;69.70
20672;DHT22;10495;50.922;4.760;2022-10-16T12:41:34;21.10;70.10
20672;DHT22;10495;50.922;4.760;2022-10-16T12:44:00;21.10;70.30
20672;DHT22;10495;50.922;4.760;2022-10-16T12:51:53;21.60;66.40
20672;DHT22;10495;50.922;4.760;2022-10-16T12:54:49;21.60;66.60
20672;DHT22;10495;50.922;4.760;2022-10-16T13:16:49;21.30;66.50
20672;DHT22;10495;50.922;4.760;2022-10-16T13:19:31;21.20;67.20
20672;DHT22;10495;50.922;4.760;2022-10-16T13:22:14;21.30;67.80
20672;DHT22;10495;50.922;4.760;2022-10-16T13:30:15;21.40;66.90
20672;DHT22;10495;50.922;4.760;2022-10-16T13:32:46;21.40;67.80
20672;DHT22;10495;50.922;4.760;2022-10-16T13:35:20;21.40;68.10
20672;DHT22;10495;50.922;4.760;2022-10-16T13:37:46;21.30;67.90
20672;DHT22;10495;50.922;4.760;2022-10-16T13:40:23;21.30;68.70
20672;DHT22;10495;50.922;4.760;2022-10-16T13:42:51;21.30;68.00
20672;DHT22;10495;50.922;4.760;2022-10-16T13:45:23;21.50;66.10
20672;DHT22;10495;50.922;4.760;2022-10-16T13:48:00;21.40;65.60
20672;DHT22;10495;50.922;4.760;2022-10-16T13:50:26;21.50;66.70
20672;DHT22;10495;50.922;4.760;2022-10-16T13:52:52;21.70;65.40
20672;DHT22;10495;50.922;4.760;2022-10-16T13:55:28;21.80;65.40
20672;DHT22;10495;50.922;4.760;2022-10-16T13:58:07;21.70;65.10
20672;DHT22;10495;50.922;4.760;2022-10-16T14:00:33;21.70;64.90
20672;DHT22;10495;50.922;4.760;2022-10-16T14:03:03;21.60;65.30
20672;DHT22;10495;50.922;4.760;2022-10-16T14:05:29;21.70;65.10
20672;DHT22;10495;50.922;4.760;2022-10-16T14:07:56;21.90;64.70
20672;DHT22;10495;50.922;4.760;2022-10-16T14:10:27;21.80;65.50
20672;DHT22;10495;50.922;4.760;2022-10-16T14:13:07;21.70;64.80
20672;DHT22;10495;50.922;4.760;2022-10-16T14:15:34;21.70;64.10
20672;DHT22;10495;50.922;4.760;2022-10-16T14:18:00;21.80;63.20
20672;DHT22;10495;50.922;4.760;2022-10-16T14:20:28;21.70;63.50
20672;DHT22;10495;50.922;4.760;2022-10-16T14:23:21;21.40;64.90
20672;DHT22;10495;50.922;4.760;2022-10-16T14:25:47;21.20;66.70
20672;DHT22;10495;50.922;4.760;2022-10-16T14:28:17;21.20;67.10
20672;DHT22;10495;50.922;4.760;2022-10-16T14:36:06;21.20;67.60
20672;DHT22;10495;50.922;4.760;2022-10-16T14:38:39;21.20;68.40
20672;DHT22;10495;50.922;4.760;2022-10-16T14:41:06;21.30;67.30
20672;DHT22;10495;50.922;4.760;2022-10-16T14:43:33;21.30;67.20
20672;DHT22;10495;50.922;4.760;2022-10-16T14:46:00;21.20;67.10
20672;DHT22;10495;50.922;4.760;2022-10-16T14:48:26;21.20;67.20
20672;DHT22;10495;50.922;4.760;2022-10-16T14:50:52;21.50;66.80
20672;DHT22;10495;50.922;4.760;2022-10-16T14:53:18;21.70;66.80
20672;DHT22;10495;50.922;4.760;2022-10-16T14:55:44;21.90;65.60
20672;DHT22;10495;50.922;4.760;2022-10-16T14:58:21;21.70;66.00
20672;DHT22;10495;50.922;4.760;2022-10-16T15:00:48;21.70;65.60
20672;DHT22;10495;50.922;4.760;2022-10-16T15:03:14;21.60;65.70
20672;DHT22;10495;50.922;4.760;2022-10-16T15:05:40;21.50;66.00
20672;DHT22;10495;50.922;4.760;2022-10-16T15:08:06;21.50;66.00
20672;DHT22;10495;50.922;4.760;2022-10-16T15:10:35;21.50;66.20
20672;DHT22;10495;50.922;4.760;2022-10-16T15:13:03;21.50;66.40
20672;DHT22;10495;50.922;4.760;2022-10-16T15:15:37;21.50;66.70
20672;DHT22;10495;50.922;4.760;2022-10-16T15:18:05;21.20;67.10
20672;DHT22;10495;50.922;4.760;2022-10-16T15:20:36;20.90;68.30
20672;DHT22;10495;50.922;4.760;2022-10-16T15:23:10;20.90;68.20
20672;DHT22;10495;50.922;4.760;2022-10-16T15:25:42;21.00;68.10
20672;DHT22;10495;50.922;4.760;2022-10-16T15:28:09;21.10;68.30
20672;DHT22;10495;50.922;4.760;2022-10-16T15:30:36;20.80;69.40
20672;DHT22;10495;50.922;4.760;2022-10-16T15:33:02;20.70;69.70
20672;DHT22;10495;50.922;4.760;2022-10-16T15:35:28;20.90;69.70
20672;DHT22;10495;50.922;4.760;2022-10-16T15:37:54;21.10;69.00
20672;DHT22;10495;50.922;4.760;2022-10-16T15:40:20;21.20;68.70
20672;DHT22;10495;50.922;4.760;2022-10-16T15:42:46;21.00;69.20
20672;DHT22;10495;50.922;4.760;2022-10-16T15:45:13;20.70;70.20
20672;DHT22;10495;50.922;4.760;2022-10-16T15:47:40;20.50;70.80
20672;DHT22;10495;50.922;4.760;2022-10-16T15:50:07;20.60;71.30
20672;DHT22;10495;50.922;4.760;2022-10-16T15:52:33;20.40;71.60
20672;DHT22;10495;50.922;4.760;2022-10-16T15:54:58;20.50;72.00
20672;DHT22;10495;50.922;4.760;2022-10-16T15:57:24;20.50;72.00
20672;DHT22;10495;50.922;4.760;2022-10-16T15:59:50;20.70;72.60
20672;DHT22;10495;50.922;4.760;2022-10-16T16:02:16;20.70;72.60
20672;DHT22;10495;50.922;4.760;2022-10-16T16:04:42;20.60;72.70
20672;DHT22;10495;50.922;4.760;2022-10-16T16:07:07;20.50;72.60
20672;DHT22;10495;50.922;4.760;2022-10-16T16:09:33;20.30;73.10
20672;DHT22;10495;50.922;4.760;2022-10-16T16:11:59;20.10;73.60
20672;DHT22;10495;50.922;4.760;2022-10-16T16:14:26;19.90;74.80
20672;DHT22;10495;50.922;4.760;2022-10-16T16:16:54;19.70;75.30
20672;DHT22;10495;50.922;4.760;2022-10-16T16:19:20;19.80;75.50
20672;DHT22;10495;50.922;4.760;2022-10-16T16:21:47;20.00;75.30
20672;DHT22;10495;50.922;4.760;2022-10-16T16:24:12;20.00;75.20
20672;DHT22;10495;50.922;4.760;2022-10-16T16:26:38;19.90;75.30
20672;DHT22;10495;50.922;4.760;2022-10-16T16:29:11;19.80;75.40
20672;DHT22;10495;50.922;4.760;2022-10-16T16:31:38;19.70;75.80
20672;DHT22;10495;50.922;4.760;2022-10-16T16:34:03;19.60;76.10
20672;DHT22;10495;50.922;4.760;2022-10-16T16:36:30;19.70;76.40
20672;DHT22;10495;50.922;4.760;2022-10-16T16:38:56;19.70;76.40
20672;DHT22;10495;50.922;4.760;2022-10-16T16:41:24;19.70;75.90
20672;DHT22;10495;50.922;4.760;2022-10-16T16:43:52;19.40;76.20
20672;DHT22;10495;50.922;4.760;2022-10-16T16:46:18;19.30;76.40
20672;DHT22;10495;50.922;4.760;2022-10-16T16:48:44;19.20;76.60
20672;DHT22;10495;50.922;4.760;2022-10-16T16:51:12;19.20;76.90
20672;DHT22;10495;50.922;4.760;2022-10-16T16:53:44;19.20;77.10
20672;DHT22;10495;50.922;4.760;2022-10-16T16:56:10;19.10;77.30
20672;DHT22;10495;50.922;4.760;2022-10-16T16:58:36;19.00;77.40
20672;DHT22;10495;50.922;4.760;2022-10-16T17:01:02;19.00;77.80
20672;DHT22;10495;50.922;4.760;2022-10-16T17:03:30;18.90;78.30
20672;DHT22;10495;50.922;4.760;2022-10-16T17:06:04;18.90;79.00
20672;DHT22;10495;50.922;4.760;2022-10-16T17:08:31;18.70;79.70
20672;DHT22;10495;50.922;4.760;2022-10-16T17:10:57;18.70;79.90
20672;DHT22;10495;50.922;4.760;2022-10-16T17:13:24;18.70;79.70
20672;DHT22;10495;50.922;4.760;2022-10-16T17:15:51;18.70;79.60
20672;DHT22;10495;50.922;4.760;2022-10-16T17:18:18;18.70;79.90
20672;DHT22;10495;50.922;4.760;2022-10-16T17:20:44;18.70;80.10
20672;DHT22;10495;50.922;4.760;2022-10-16T17:23:11;18.50;82.10
20672;DHT22;10495;50.922;4.760;2022-10-16T17:25:38;18.50;82.00
20672;DHT22;10495;50.922;4.760;2022-10-16T17:28:04;18.70;81.90
20672;DHT22;10495;50.922;4.760;2022-10-16T17:30:30;18.60;81.90
20672;DHT22;10495;50.922;4.760;2022-10-16T17:32:55;18.60;82.10
20672;DHT22;10495;50.922;4.760;2022-10-16T17:35:21;18.60;82.60
20672;DHT22;10495;50.922;4.760;2022-10-16T17:37:46;18.60;82.90
20672;DHT22;10495;50.922;4.760;2022-10-16T17:40:12;18.50;83.30
20672;DHT22;10495;50.922;4.760;2022-10-16T17:42:38;18.40;83.50
20672;DHT22;10495;50.922;4.760;2022-10-16T17:45:03;18.40;83.80
20672;DHT22;10495;50.922;4.760;2022-10-16T17:47:29;18.30;84.10
20672;DHT22;10495;50.922;4.760;2022-10-16T17:49:55;18.20;84.60